Time;durP1;ratioP1;P1;durP2;ratioP2;P2;SDS_P1;SDS_P2;PMS_P1;PMS_P2;Temp;Humidity;BMP_temperature;BMP_pressure;BME280_temperature;BME280_humidity;BME280_pressure;Samples;Min_cycle;Max_cycle;Signal;HPM_P1;HPM_P2
2021/11/10 00:02:13;;;;;;;21.40;11.03;;;;;;;0.78;84.67;99595.13;1731960;83;21003;-82
2021/11/10 00:04:39;;;;;;;23.42;12.37;;;;;;;0.76;84.77;99594.19;1732289;83;21043;-82
2021/11/10 00:07:07;;;;;;;20.85;11.70;;;;;;;0.75;84.40;99596.34;1732235;83;21080;-82
2021/11/10 00:09:33;;;;;;;22.85;11.88;;;;;;;0.72;84.17;99587.08;1730452;82;21422;-81
2021/11/10 00:12:00;;;;;;;24.00;11.97;;;;;;;0.67;83.98;99589.94;1726870;83;20977;-80
2021/11/10 00:14:26;;;;;;;21.25;11.25;;;;;;;0.58;83.88;99591.81;1726848;83;21012;-80
2021/11/10 00:16:55;;;;;;;21.87;12.58;;;;;;;0.51;83.95;99585.47;1727183;83;21099;-81
2021/11/10 00:19:23;;;;;;;27.05;12.47;;;;;;;0.49;84.02;99578.89;1726917;83;20992;-81
2021/11/10 00:21:51;;;;;;;23.65;12.43;;;;;;;0.45;84.19;99580.91;1727834;83;21036;-80
2021/11/10 00:24:18;;;;;;;24.45;12.63;;;;;;;0.43;84.17;99581.28;1732252;82;21088;-80
2021/11/10 00:26:46;;;;;;;29.27;13.50;;;;;;;0.36;84.23;99583.17;1729688;83;21052;-80
2021/11/10 00:29:12;;;;;;;24.60;12.73;;;;;;;0.29;84.39;99583.36;1731943;83;21513;-80
2021/11/10 00:31:39;;;;;;;23.40;11.38;;;;;;;0.26;84.57;99580.22;1731540;83;21022;-80
2021/11/10 00:34:06;;;;;;;22.42;11.57;;;;;;;0.28;84.74;99582.02;1730882;83;21081;-80
2021/11/10 00:36:32;;;;;;;22.22;11.57;;;;;;;0.24;84.71;99577.98;1727003;83;21080;-80
2021/11/10 00:38:59;;;;;;;24.12;12.18;;;;;;;0.23;84.53;99579.22;1727613;83;21051;-80
2021/11/10 00:41:25;;;;;;;19.15;10.53;;;;;;;0.22;84.33;99586.17;1732456;83;21010;-80
2021/11/10 00:43:52;;;;;;;20.45;9.73;;;;;;;0.20;84.36;99594.77;1732346;83;21106;-80
2021/11/10 00:46:19;;;;;;;23.22;11.70;;;;;;;0.14;84.32;99584.98;1730346;83;21023;-80
2021/11/10 00:48:45;;;;;;;22.10;10.75;;;;;;;0.14;85.48;99586.29;1726673;83;21497;-80
2021/11/10 00:51:11;;;;;;;20.32;11.03;;;;;;;0.09;85.70;99582.63;1730031;83;21036;-80
2021/11/10 00:53:38;;;;;;;22.20;11.63;;;;;;;0.06;85.11;99575.57;1731680;82;20961;-80
2021/11/10 00:56:05;;;;;;;20.05;10.70;;;;;;;0.09;85.49;99583.48;1731019;83;21045;-80
2021/11/10 00:58:32;;;;;;;20.75;10.35;;;;;;;0.10;85.33;99585.30;1729014;82;21008;-80
2021/11/10 01:00:58;;;;;;;19.85;11.22;;;;;;;0.15;85.51;99592.38;1728563;81;20975;-80
2021/11/10 01:03:28;;;;;;;18.20;10.03;;;;;;;0.17;85.42;99596.81;1732432;83;21078;-80
2021/11/10 01:05:57;;;;;;;19.77;10.53;;;;;;;0.19;85.48;99594.27;1732546;83;21022;-80
2021/11/10 01:08:25;;;;;;;18.85;10.40;;;;;;;0.21;85.86;99595.23;1732539;83;21011;-80
2021/11/10 01:10:56;;;;;;;20.30;10.63;;;;;;;0.17;85.65;99591.59;1728503;82;20984;-80
2021/11/10 01:13:24;;;;;;;19.05;9.88;;;;;;;0.14;85.87;99600.62;1727085;83;21064;-80
2021/11/10 01:15:52;;;;;;;19.07;9.93;;;;;;;0.11;85.87;99602.70;1709208;83;21012;-80
2021/11/10 01:18:18;;;;;;;16.20;9.93;;;;;;;0.05;85.55;99608.09;1696763;84;21076;-80
2021/11/10 01:20:45;;;;;;;21.55;10.70;;;;;;;0.01;85.29;99611.00;1696191;85;21000;-80
2021/11/10 01:23:12;;;;;;;20.15;10.32;;;;;;;-0.04;85.40;99596.47;1667321;85;21040;-80
2021/11/10 01:25:40;;;;;;;20.75;10.45;;;;;;;-0.05;85.08;99598.61;1675866;85;20979;-80
2021/11/10 01:28:09;;;;;;;18.02;9.78;;;;;;;-0.11;85.58;99607.50;1692388;85;21024;-80
2021/11/10 01:30:38;;;;;;;19.92;10.28;;;;;;;-0.15;85.24;99608.20;1678201;85;21004;-80
2021/11/10 01:33:05;;;;;;;21.73;10.08;;;;;;;-0.15;85.33;99594.77;1672324;86;21407;-80
2021/11/10 01:35:32;;;;;;;23.35;9.58;;;;;;;-0.18;85.81;99602.45;1672513;86;21001;-80
2021/11/10 01:38:00;;;;;;;18.30;10.03;;;;;;;-0.14;85.31;99607.36;1652852;86;21024;-80
2021/11/10 01:40:29;;;;;;;20.05;9.93;;;;;;;-0.06;85.29;99598.54;1653739;85;21065;-80
2021/11/10 01:42:56;;;;;;;18.82;9.45;;;;;;;-0.04;85.47;99586.47;1673852;85;21424;-80
2021/11/10 01:45:24;;;;;;;19.20;9.60;;;;;;;-0.01;85.23;99578.35;1676840;86;21375;-80
2021/11/10 01:47:52;;;;;;;18.20;9.33;;;;;;;0.07;85.19;99580.35;1677798;85;21446;-80
2021/11/10 01:50:19;;;;;;;18.42;9.15;;;;;;;0.07;85.30;99573.43;1687359;85;21439;-80
2021/11/10 01:52:47;;;;;;;18.50;9.15;;;;;;;0.16;85.25;99570.27;1687164;85;21019;-80
2021/11/10 01:55:15;;;;;;;15.55;9.20;;;;;;;0.20;85.02;99561.74;1687292;85;21034;-80
2021/11/10 01:57:44;;;;;;;17.30;9.65;;;;;;;0.22;85.19;99565.31;1678257;84;21011;-80
2021/11/10 02:00:27;;;;;;;18.57;10.40;;;;;;;0.29;85.17;99562.93;1674691;86;21072;-80
2021/11/10 02:02:57;;;;;;;17.48;9.80;;;;;;;0.28;85.33;99567.24;1674785;86;21083;-80
2021/11/10 02:05:40;;;;;;;19.75;9.90;;;;;;;0.30;85.14;99564.30;1650017;86;21018;-80
2021/11/10 02:08:09;;;;;;;16.55;8.80;;;;;;;0.36;85.14;99555.39;1675825;85;21045;-80
2021/11/10 02:10:36;;;;;;;16.82;9.33;;;;;;;0.41;84.86;99569.02;1687518;85;21537;-80
2021/11/10 02:13:05;;;;;;;17.98;9.40;;;;;;;0.41;84.76;99571.63;1687129;85;21403;-80
2021/11/10 02:15:32;;;;;;;14.63;8.63;;;;;;;0.48;85.07;99565.78;1687411;85;21407;-80
2021/11/10 02:18:02;;;;;;;20.55;9.53;;;;;;;0.57;85.06;99575.25;1686146;85;21022;-80
2021/11/10 02:20:34;;;;;;;17.15;9.20;;;;;;;0.67;85.30;99577.80;1669527;86;22245;-80
2021/11/10 02:23:05;;;;;;;18.23;9.55;;;;;;;0.73;85.05;99574.50;1642331;87;21056;-80
2021/11/10 02:25:33;;;;;;;15.48;8.78;;;;;;;0.80;84.84;99572.59;1615192;89;21054;-80
2021/11/10 02:28:00;;;;;;;16.60;8.28;;;;;;;0.85;84.85;99577.55;1642427;87;21029;-80
2021/11/10 02:30:28;;;;;;;14.40;8.48;;;;;;;0.90;84.76;99567.27;1614323;89;20974;-80
2021/11/10 02:32:59;;;;;;;16.23;8.00;;;;;;;0.99;84.91;99564.97;1641848;87;21387;-80
2021/11/10 02:35:29;;;;;;;13.28;7.65;;;;;;;1.01;84.44;99555.48;1621064;87;21047;-80
2021/11/10 02:38:01;;;;;;;13.08;7.67;;;;;;;1.00;84.20;99557.61;1616459;89;21052;-81
2021/11/10 02:40:29;;;;;;;15.60;8.28;;;;;;;0.98;84.12;99556.67;1705759;83;21028;-80
2021/11/10 02:42:57;;;;;;;18.00;8.60;;;;;;;0.95;83.94;99553.08;1697439;84;21008;-81
2021/11/10 02:45:25;;;;;;;14.50;8.15;;;;;;;0.92;83.63;99554.73;1697572;84;20949;-80
2021/11/10 02:47:52;;;;;;;16.80;8.10;;;;;;;0.87;83.69;99555.43;1697544;84;21012;-80
2021/11/10 02:50:19;;;;;;;14.75;8.28;;;;;;;0.84;83.66;99546.17;1721596;83;21080;-80
2021/11/10 02:52:46;;;;;;;15.83;7.90;;;;;;;0.82;83.84;99538.28;1727146;83;21095;-80
2021/11/10 02:55:14;;;;;;;14.33;8.23;;;;;;;0.88;83.97;99541.53;1714186;83;21014;-80
2021/11/10 02:57:40;;;;;;;15.30;8.43;;;;;;;0.86;83.74;99540.17;1696554;84;21000;-80
2021/11/10 03:00:11;;;;;;;17.02;8.68;;;;;;;0.84;83.47;99533.12;1701097;83;20999;-80
2021/11/10 03:02:41;;;;;;;;;;;;;;;0.85;83.86;99533.59;1682149;85;21025;-80
2021/11/10 03:05:10;;;;;;;18.37;8.13;;;;;;;0.85;83.69;99532.28;1679718;85;20108;-80
2021/11/10 03:07:36;;;;;;;14.30;7.53;;;;;;;0.87;84.18;99526.28;1697552;84;21527;-80
2021/11/10 03:10:05;;;;;;;15.18;7.47;;;;;;;0.91;83.90;99527.27;1697346;84;21436;-81
2021/11/10 03:12:33;;;;;;;15.50;7.97;;;;;;;0.92;83.89;99528.63;1700739;83;21466;-81
2021/11/10 03:15:00;;;;;;;18.55;8.58;;;;;;;0.91;83.60;99534.69;1665761;86;21464;-80
2021/11/10 03:17:27;;;;;;;15.85;8.53;;;;;;;0.95;83.90;99545.25;1639302;86;21053;-81
2021/11/10 03:19:55;;;;;;;15.10;8.30;;;;;;;0.94;84.60;99551.28;1644441;86;20972;-80
2021/11/10 03:22:23;;;;;;;15.65;8.00;;;;;;;0.95;84.16;99544.81;1678401;85;21826;-80
2021/11/10 03:24:51;;;;;;;16.17;8.78;;;;;;;1.01;84.13;99546.75;1676794;85;21041;-81
2021/11/10 03:27:26;;;;;;;16.20;8.33;;;;;;;1.04;83.88;99540.34;1679988;85;21049;-80
2021/11/10 03:29:54;;;;;;;16.57;8.03;;;;;;;1.09;83.88;99537.47;1677129;85;20990;-80
2021/11/10 03:32:23;;;;;;;17.27;8.38;;;;;;;1.09;83.73;99546.61;1676507;86;20977;-80
2021/11/10 03:34:51;;;;;;;16.02;8.18;;;;;;;1.09;83.50;99545.30;1666206;85;21073;-80
2021/11/10 03:37:18;;;;;;;13.93;8.10;;;;;;;1.07;83.92;99548.70;1695333;84;21029;-81
2021/11/10 03:39:45;;;;;;;17.37;8.15;;;;;;;1.04;84.13;99540.34;1692809;84;21066;-81
2021/11/10 03:42:13;;;;;;;19.55;10.38;;;;;;;1.01;84.24;99546.35;1687693;85;21459;-80
2021/11/10 03:44:40;;;;;;;17.55;8.25;;;;;;;1.08;84.62;99540.89;1687447;84;21013;-80
2021/11/10 03:47:07;;;;;;;17.80;9.10;;;;;;;1.10;84.40;99534.02;1684190;85;21026;-80
2021/11/10 03:49:35;;;;;;;16.93;8.50;;;;;;;1.12;84.30;99537.55;1686865;84;21062;-80
2021/11/10 03:52:03;;;;;;;14.73;8.78;;;;;;;1.13;83.98;99544.55;1687708;84;21002;-80
2021/11/10 03:54:30;;;;;;;17.45;8.73;;;;;;;1.10;83.93;99534.42;1687657;84;20965;-80
2021/11/10 03:56:56;;;;;;;22.07;10.25;;;;;;;1.04;83.64;99526.85;1688111;84;21090;-80
2021/11/10 03:59:23;;;;;;;20.15;9.40;;;;;;;1.01;83.69;99533.70;1652739;86;21097;-80
2021/11/10 04:01:51;;;;;;;17.00;9.38;;;;;;;0.98;83.42;99534.89;1687188;85;21037;-81
2021/11/10 04:04:18;;;;;;;17.00;8.50;;;;;;;0.96;83.41;99539.19;1687764;84;20969;-81
2021/11/10 04:06:45;;;;;;;17.37;8.90;;;;;;;0.95;83.35;99536.11;1687850;85;21083;-79
2021/11/10 04:09:12;;;;;;;16.15;8.80;;;;;;;0.95;83.23;99540.90;1688330;85;21004;-80
2021/11/10 04:11:39;;;;;;;17.15;8.80;;;;;;;0.92;83.49;99537.77;1687092;84;21427;-80
2021/11/10 04:14:07;;;;;;;16.90;9.35;;;;;;;0.94;83.30;99535.21;1687263;84;21035;-80
2021/11/10 04:16:36;;;;;;;17.82;9.28;;;;;;;0.92;83.38;99533.84;1686858;84;21490;-81
2021/11/10 04:19:04;;;;;;;14.35;8.68;;;;;;;0.91;83.43;99533.39;1662285;85;21063;-81
2021/11/10 04:21:31;;;;;;;18.07;9.65;;;;;;;0.91;82.94;99531.17;1725168;83;20985;-81
2021/11/10 04:23:59;;;;;;;17.37;9.55;;;;;;;0.81;83.18;99523.47;1724935;83;20962;-81
2021/11/10 04:26:31;;;;;;;14.65;8.68;;;;;;;0.80;83.30;99530.84;1724910;82;21318;-81
2021/11/10 04:28:59;;;;;;;14.07;8.20;;;;;;;0.83;83.49;99528.30;1700764;83;20966;-81
2021/11/10 04:31:26;;;;;;;17.57;8.40;;;;;;;0.85;83.46;99524.05;1724552;82;21015;-81
2021/11/10 04:33:54;;;;;;;19.25;9.30;;;;;;;0.87;83.48;99521.06;1724908;83;21433;-80
2021/11/10 04:36:25;;;;;;;17.12;9.30;;;;;;;0.90;83.75;99520.28;1723891;83;21079;-81
2021/11/10 04:38:54;;;;;;;24.47;9.80;;;;;;;0.92;83.60;99519.93;1687170;85;20985;-81
2021/11/10 04:41:20;;;;;;;17.95;10.20;;;;;;;0.95;83.47;99512.62;1713894;83;21012;-81
2021/11/10 04:43:47;;;;;;;17.82;9.83;;;;;;;1.01;83.72;99515.42;1718851;83;20973;-80
2021/11/10 04:46:25;;;;;;;20.10;10.45;;;;;;;1.00;84.06;99509.74;1702735;83;21000;-80
2021/11/10 04:48:49;;;;;;;18.40;8.50;;;;;;;1.03;83.64;99521.17;1716301;83;21530;-80
2021/11/10 04:51:17;;;;;;;15.93;8.83;;;;;;;1.05;83.14;99521.23;1713813;84;21036;-80
2021/11/10 04:53:48;;;;;;;15.13;8.80;;;;;;;0.98;83.11;99523.14;1713818;83;21501;-81
2021/11/10 04:56:16;;;;;;;16.52;8.40;;;;;;;0.95;83.49;99515.23;1716723;83;20973;-80
2021/11/10 04:58:43;;;;;;;19.20;9.20;;;;;;;0.96;83.51;99523.52;1717133;82;21068;-80
2021/11/10 05:01:15;;;;;;;21.10;9.08;;;;;;;0.94;83.49;99530.39;1717618;83;20997;-80
2021/11/10 05:03:39;;;;;;;17.25;8.95;;;;;;;0.94;83.71;99532.60;1719336;83;21052;-80
2021/11/10 05:06:05;;;;;;;18.57;9.18;;;;;;;0.95;83.33;99533.06;1685107;84;21027;-80
2021/11/10 05:08:32;;;;;;;18.67;9.43;;;;;;;0.89;83.59;99535.06;1687264;85;20965;-80
2021/11/10 05:10:58;;;;;;;20.82;9.48;;;;;;;0.86;83.61;99539.27;1708050;80;21224;-80
2021/11/10 05:13:26;;;;;;;24.57;10.88;;;;;;;0.91;83.95;99532.08;1693493;82;21020;-80
2021/11/10 05:15:53;;;;;;;21.17;9.45;;;;;;;0.94;84.43;99533.01;1705413;80;20941;-81
2021/11/10 05:18:20;;;;;;;20.12;9.50;;;;;;;0.90;84.82;99534.23;1730713;78;20993;-80
2021/11/10 05:20:48;;;;;;;23.40;9.38;;;;;;;0.90;84.91;99539.45;1718706;82;21035;-82
2021/11/10 05:23:18;;;;;;;27.20;10.15;;;;;;;0.88;84.66;99538.48;1717593;82;21080;-82
2021/11/10 05:25:44;;;;;;;23.60;9.35;;;;;;;0.84;84.95;99549.69;1721997;82;20973;-82
2021/11/10 05:28:14;;;;;;;25.95;9.40;;;;;;;0.85;84.96;99542.72;1721161;81;21029;-81
2021/11/10 05:30:41;;;;;;;26.97;9.78;;;;;;;0.83;85.08;99551.80;1678980;84;20981;-82
2021/11/10 05:33:09;;;;;;;23.20;10.72;;;;;;;0.87;85.23;99544.55;1708696;83;21073;-80
2021/11/10 05:35:36;;;;;;;24.87;10.63;;;;;;;0.96;85.67;99542.70;1720924;83;21244;-81
2021/11/10 05:38:03;;;;;;;27.35;10.50;;;;;;;1.04;86.05;99557.31;1688216;83;21000;-81
2021/11/10 05:40:30;;;;;;;26.73;9.83;;;;;;;1.11;86.10;99557.08;1721211;83;21041;-81
2021/11/10 05:42:57;;;;;;;28.05;10.08;;;;;;;1.08;85.98;99559.17;1717937;83;21564;-80
2021/11/10 05:45:24;;;;;;;31.73;11.25;;;;;;;1.16;86.14;99564.69;1715229;84;21012;-81
2021/11/10 05:47:51;;;;;;;40.12;12.05;;;;;;;1.14;85.81;99575.07;1719885;83;20986;-80
2021/11/10 05:50:17;;;;;;;27.62;10.95;;;;;;;1.08;86.30;99569.61;1718124;82;21027;-80
2021/11/10 05:52:45;;;;;;;31.15;12.30;;;;;;;1.03;85.88;99564.66;1723436;82;21051;-86
2021/11/10 05:55:15;;;;;;;42.40;14.00;;;;;;;1.04;86.10;99558.19;1717141;83;21418;-83
2021/11/10 05:57:42;;;;;;;38.08;13.30;;;;;;;1.09;85.89;99566.19;1714215;83;21065;-83
2021/11/10 06:00:12;;;;;;;42.50;14.03;;;;;;;1.14;86.10;99572.86;1712009;83;21044;-83
2021/11/10 06:02:43;;;;;;;40.60;14.15;;;;;;;1.20;85.64;99574.80;1711996;84;21088;-83
2021/11/10 06:05:18;;;;;;;44.03;16.32;;;;;;;1.21;85.66;99576.58;1680133;85;21025;-83
2021/11/10 06:07:45;;;;;;;44.63;14.43;;;;;;;1.12;88.89;99583.25;1655746;86;20994;-82
2021/11/10 06:10:16;;;;;;;38.63;13.75;;;;;;;1.09;87.50;99586.18;1668146;85;21044;-83
2021/11/10 06:12:45;;;;;;;37.08;12.95;;;;;;;1.04;88.27;99579.52;1719872;83;20974;-83
2021/11/10 06:15:12;;;;;;;46.85;14.15;;;;;;;0.94;89.45;99580.00;1719849;83;21100;-83
2021/11/10 06:17:39;;;;;;;36.10;14.15;;;;;;;0.90;89.02;99582.92;1719910;82;20954;-83
2021/11/10 06:20:09;;;;;;;39.15;14.03;;;;;;;0.91;88.78;99575.16;1719742;82;21049;-83
2021/11/10 06:22:36;;;;;;;38.30;14.33;;;;;;;0.94;87.84;99581.30;1714349;83;21414;-83
2021/11/10 06:25:04;;;;;;;35.78;15.00;;;;;;;0.99;88.00;99591.52;1713752;83;21064;-83
2021/11/10 06:27:32;;;;;;;36.98;14.93;;;;;;;1.07;88.77;99582.20;1713712;84;21048;-82
2021/11/10 06:30:00;;;;;;;40.03;16.05;;;;;;;1.17;88.37;99592.13;1713572;83;21013;-83
2021/11/10 06:32:27;;;;;;;38.78;15.43;;;;;;;1.33;88.95;99594.39;1679446;84;21028;-83
2021/11/10 06:34:53;;;;;;;38.45;15.50;;;;;;;1.44;88.94;99586.48;1687489;85;21436;-82
2021/11/10 06:37:20;;;;;;;36.90;14.28;;;;;;;1.53;88.65;99582.00;1687231;84;21398;-82
2021/11/10 06:39:46;;;;;;;37.00;14.10;;;;;;;1.60;89.13;99589.18;1689014;84;21060;-83
2021/11/10 06:42:13;;;;;;;33.50;14.70;;;;;;;1.65;89.49;99591.52;1698177;84;21068;-83
2021/11/10 06:44:39;;;;;;;38.48;14.18;;;;;;;1.65;89.69;99584.09;1697768;84;21115;-82
2021/11/10 06:47:06;;;;;;;36.15;14.33;;;;;;;1.60;90.28;99596.13;1675173;86;21517;-81
2021/11/10 06:49:32;;;;;;;41.63;14.58;;;;;;;1.54;90.58;99602.92;1692730;83;20988;-82
2021/11/10 06:51:59;;;;;;;40.25;14.73;;;;;;;1.55;90.92;99602.52;1699127;84;20967;-83
2021/11/10 06:54:26;;;;;;;44.13;14.05;;;;;;;1.42;92.04;99606.45;1699022;84;21166;-83
2021/11/10 06:56:53;;;;;;;31.40;13.90;;;;;;;1.35;92.09;99607.97;1698777;84;20989;-82
2021/11/10 06:59:20;;;;;;;36.90;15.90;;;;;;;1.35;90.84;99606.66;1697845;84;20985;-82
2021/11/10 07:01:47;;;;;;;36.10;14.23;;;;;;;1.40;90.88;99612.03;1692089;84;21017;-80
2021/11/10 07:04:14;;;;;;;32.93;13.68;;;;;;;1.44;90.74;99609.99;1693951;84;21460;-80
2021/11/10 07:06:41;;;;;;;34.58;13.62;;;;;;;1.45;90.49;99611.77;1697696;84;21040;-79
2021/11/10 07:09:08;;;;;;;37.00;15.50;;;;;;;1.55;90.04;99611.66;1696809;84;21064;-79
2021/11/10 07:11:35;;;;;;;35.40;13.85;;;;;;;1.66;89.84;99605.49;1664580;86;21001;-79
2021/11/10 07:14:05;;;;;;;41.68;15.68;;;;;;;1.71;90.34;99602.61;1685910;85;21015;-79
2021/11/10 07:16:32;;;;;;;38.40;15.53;;;;;;;1.80;90.31;99609.44;1687385;85;21086;-79
2021/11/10 07:19:00;;;;;;;36.30;14.75;;;;;;;1.88;89.68;99608.78;1687502;85;21066;-79
2021/11/10 07:21:27;;;;;;;41.73;16.20;;;;;;;1.97;89.25;99604.75;1680493;85;21079;-79
2021/11/10 07:23:54;;;;;;;40.48;17.02;;;;;;;2.03;89.85;99602.72;1692416;85;21013;-79
2021/11/10 07:26:21;;;;;;;36.33;16.20;;;;;;;2.05;89.40;99604.08;1675165;86;21019;-79
2021/11/10 07:28:48;;;;;;;40.78;16.50;;;;;;;2.10;89.08;99603.80;1692721;84;21023;-79
2021/11/10 07:31:14;;;;;;;37.28;16.60;;;;;;;2.20;89.51;99613.70;1694604;84;20967;-79
2021/11/10 07:33:41;;;;;;;39.53;17.25;;;;;;;2.27;89.59;99609.55;1697712;84;21034;-79
2021/11/10 07:36:08;;;;;;;35.88;15.45;;;;;;;2.32;88.48;99600.10;1697585;84;21452;-79
2021/11/10 07:38:39;;;;;;;44.25;17.57;;;;;;;2.34;88.60;99597.53;1697605;84;21015;-79
2021/11/10 07:41:03;;;;;;;45.48;19.02;;;;;;;2.40;88.47;99604.69;1691671;84;21504;-79
2021/11/10 07:43:31;;;;;;;40.55;17.23;;;;;;;2.42;89.29;99593.42;1682066;84;20994;-79
2021/11/10 07:46:07;;;;;;;37.42;16.35;;;;;;;2.47;88.98;99594.45;1713896;84;21072;-79
2021/11/10 07:48:29;;;;;;;42.80;18.10;;;;;;;2.57;88.87;99586.42;1713229;83;20977;-79
2021/11/10 07:50:57;;;;;;;40.38;17.48;;;;;;;2.66;88.64;99596.70;1714010;83;21022;-79
2021/11/10 07:53:23;;;;;;;41.13;17.70;;;;;;;2.67;88.30;99595.84;1713752;83;21016;-79
2021/11/10 07:55:50;;;;;;;42.67;18.80;;;;;;;2.75;88.35;99604.37;1713800;83;20986;-79
2021/11/10 07:58:16;;;;;;;44.00;18.25;;;;;;;2.78;88.70;99606.19;1713754;84;21031;-79
2021/11/10 08:00:43;;;;;;;41.68;18.57;;;;;;;2.88;87.81;99608.25;1715471;83;21363;-79
2021/11/10 08:03:10;;;;;;;48.55;19.17;;;;;;;2.86;87.91;99612.98;1715947;83;21040;-79
2021/11/10 08:05:37;;;;;;;39.42;17.62;;;;;;;2.81;87.96;99612.83;1709036;83;21042;-79
2021/11/10 08:08:04;;;;;;;46.08;20.65;;;;;;;2.84;87.93;99609.00;1709084;84;20988;-79
2021/11/10 08:10:31;;;;;;;39.53;17.77;;;;;;;2.93;87.95;99610.08;1709007;84;21112;-79
2021/11/10 08:12:58;;;;;;;39.78;17.60;;;;;;;3.00;87.77;99606.80;1711672;83;20953;-79
2021/11/10 08:15:25;;;;;;;40.28;17.75;;;;;;;3.04;87.59;99608.66;1713781;84;21053;-79
2021/11/10 08:17:52;;;;;;;40.78;18.45;;;;;;;3.14;87.67;99601.92;1713748;84;21018;-79
2021/11/10 08:20:19;;;;;;;49.33;19.37;;;;;;;3.22;87.70;99596.47;1713701;84;21009;-79
2021/11/10 08:22:47;;;;;;;42.05;18.62;;;;;;;3.37;87.70;99595.09;1713760;84;21447;-79
2021/11/10 08:25:17;;;;;;;37.35;17.67;;;;;;;3.46;87.85;99599.26;1717632;83;21009;-79
2021/11/10 08:27:45;;;;;;;37.95;18.00;;;;;;;3.55;88.03;99593.34;1719621;82;21021;-79
2021/11/10 08:30:17;;;;;;;41.58;18.10;;;;;;;3.72;87.62;99593.76;1714366;82;21016;-79
2021/11/10 08:32:48;;;;;;;39.92;18.35;;;;;;;3.80;87.45;99594.84;1713409;84;21012;-79
2021/11/10 08:35:16;;;;;;;40.75;19.60;;;;;;;3.82;86.73;99589.64;1678979;85;21022;-80
2021/11/10 08:37:44;;;;;;;43.92;18.62;;;;;;;3.86;86.55;99587.52;1655076;86;20997;-79
2021/11/10 08:40:12;;;;;;;37.93;17.42;;;;;;;3.78;85.79;99579.48;1679441;85;21010;-79
2021/11/10 08:42:39;;;;;;;35.03;17.20;;;;;;;3.75;86.18;99578.11;1713594;84;21017;-79
2021/11/10 08:45:13;;;;;;;30.60;16.05;;;;;;;3.85;86.16;99576.58;1713658;84;20973;-79
2021/11/10 08:47:47;;;;;;;40.05;16.95;;;;;;;3.92;85.85;99586.79;1713727;84;21013;-79
2021/11/10 08:50:17;;;;;;;36.17;18.12;;;;;;;3.89;85.04;99587.60;1718459;83;20926;-79
2021/11/10 08:52:45;;;;;;;39.13;18.07;;;;;;;3.79;85.01;99594.35;1719644;83;20978;-79
2021/11/10 08:55:15;;;;;;;37.35;16.97;;;;;;;3.75;85.28;99595.16;1719702;83;21049;-79
2021/11/10 08:57:44;;;;;;;34.75;17.60;;;;;;;3.71;86.07;99590.69;1719684;83;21005;-79
2021/11/10 09:00:18;;;;;;;41.65;19.62;;;;;;;3.85;85.54;99586.20;1712391;83;21000;-79
2021/11/10 09:02:45;;;;;;;;;;;;;;;3.97;85.12;99594.34;1711787;84;21032;-79
2021/11/10 09:05:13;;;;;;;39.92;18.27;;;;;;;3.98;84.89;99596.55;1709159;84;20421;-80
2021/11/10 09:07:40;;;;;;;42.48;19.40;;;;;;;4.09;85.08;99598.56;1709271;84;21386;-80
2021/11/10 09:10:11;;;;;;;41.10;19.17;;;;;;;4.21;85.16;99585.25;1711850;84;21058;-80
2021/11/10 09:12:39;;;;;;;41.98;19.37;;;;;;;4.33;84.64;99578.94;1713501;84;20973;-80
2021/11/10 09:15:10;;;;;;;38.80;19.60;;;;;;;4.40;84.01;99588.28;1678948;85;21048;-79
2021/11/10 09:17:39;;;;;;;40.55;19.25;;;;;;;4.35;83.69;99578.56;1654927;87;21068;-80
2021/11/10 09:20:12;;;;;;;38.38;19.35;;;;;;;4.36;83.84;99574.17;1713499;84;21355;-80
2021/11/10 09:22:39;;;;;;;41.23;20.23;;;;;;;4.38;83.98;99572.48;1684664;85;21460;-79
2021/11/10 09:25:10;;;;;;;39.18;18.98;;;;;;;4.45;83.85;99573.06;1687270;85;21441;-80
2021/11/10 09:27:39;;;;;;;40.00;18.98;;;;;;;4.54;84.09;99572.39;1686871;84;21006;-79
2021/11/10 09:30:10;;;;;;;38.83;18.10;;;;;;;4.58;83.91;99565.03;1713782;83;20981;-80
2021/11/10 09:32:38;;;;;;;36.60;15.78;;;;;;;4.71;84.45;99565.27;1713537;84;21461;-80
2021/11/10 09:35:07;;;;;;;31.07;15.00;;;;;;;4.87;85.40;99562.51;1678989;85;20986;-79
2021/11/10 09:37:35;;;;;;;33.58;15.05;;;;;;;5.00;85.11;99560.58;1654725;87;21018;-79
2021/11/10 09:40:05;;;;;;;31.15;14.85;;;;;;;5.14;85.12;99558.19;1717028;83;21029;-79
2021/11/10 09:42:35;;;;;;;31.95;15.98;;;;;;;5.33;84.76;99546.68;1730294;83;21072;-79
2021/11/10 09:45:05;;;;;;;31.15;15.10;;;;;;;5.45;83.78;99548.63;1732544;82;21037;-79
2021/11/10 09:47:34;;;;;;;24.32;13.72;;;;;;;5.54;83.18;99547.88;1732130;82;21017;-79
2021/11/10 09:50:01;;;;;;;32.93;15.43;;;;;;;5.60;83.06;99548.42;1732395;83;21498;-79
2021/11/10 09:52:30;;;;;;;25.25;14.30;;;;;;;5.70;82.74;99538.91;1714274;83;20969;-80
2021/11/10 09:54:57;;;;;;;28.12;14.78;;;;;;;5.82;83.18;99535.16;1731260;83;21059;-79
2021/11/10 09:57:25;;;;;;;23.75;14.53;;;;;;;5.98;82.97;99534.92;1726891;83;21058;-79
2021/11/10 09:59:53;;;;;;;25.05;14.60;;;;;;;6.09;82.12;99534.25;1731095;83;21025;-79
2021/11/10 10:02:20;;;;;;;27.32;13.75;;;;;;;6.10;79.86;99525.03;1732367;83;21014;-79
2021/11/10 10:04:49;;;;;;;25.92;14.15;;;;;;;6.15;80.49;99528.61;1732522;83;21089;-79
2021/11/10 10:07:17;;;;;;;22.93;13.78;;;;;;;6.22;80.98;99522.13;1728184;83;20976;-79
2021/11/10 10:09:43;;;;;;;24.15;11.95;;;;;;;6.36;81.01;99513.08;1727212;83;20980;-79
2021/11/10 10:12:15;;;;;;;22.37;13.32;;;;;;;6.45;78.93;99520.64;1727208;83;21020;-79
2021/11/10 10:14:39;;;;;;;26.80;14.23;;;;;;;6.46;78.94;99513.63;1726764;83;21000;-80
2021/11/10 10:17:09;;;;;;;24.75;15.58;;;;;;;6.57;79.67;99509.36;1727028;83;20992;-79
2021/11/10 10:19:43;;;;;;;25.43;15.03;;;;;;;6.73;79.51;99502.97;1727237;83;21015;-80
2021/11/10 10:22:20;;;;;;;25.55;14.87;;;;;;;6.87;78.51;99507.05;1732005;83;20961;-80
2021/11/10 10:24:53;;;;;;;29.85;14.38;;;;;;;7.04;77.44;99489.18;1732539;82;21032;-79
2021/11/10 10:27:31;;;;;;;26.82;15.90;;;;;;;7.17;77.18;99498.08;1732679;82;20953;-80
2021/11/10 10:30:29;;;;;;;26.42;15.93;;;;;;;7.34;76.57;99500.43;1732411;83;20991;-80
2021/11/10 10:33:10;;;;;;;26.15;15.25;;;;;;;7.51;76.67;99491.33;1728392;83;21000;-80
2021/11/10 10:35:45;;;;;;;26.10;14.93;;;;;;;7.51;76.17;99499.66;1727164;82;21446;-79
2021/11/10 10:38:16;;;;;;;27.60;15.50;;;;;;;7.41;74.63;99498.73;1726956;82;21012;-79
2021/11/10 10:40:46;;;;;;;23.45;13.95;;;;;;;7.32;74.92;99490.74;1727021;83;20985;-79
2021/11/10 10:43:14;;;;;;;23.20;13.85;;;;;;;7.18;74.81;99486.69;1726950;83;21004;-79
2021/11/10 10:45:49;;;;;;;24.18;14.73;;;;;;;6.95;74.78;99486.93;1731893;83;20997;-80
2021/11/10 10:48:21;;;;;;;25.92;15.40;;;;;;;6.90;75.98;99475.89;1732438;83;21048;-79
2021/11/10 10:51:03;;;;;;;25.60;14.35;;;;;;;6.88;75.50;99475.87;1732329;82;21504;-79
2021/11/10 10:53:47;;;;;;;24.43;15.00;;;;;;;7.11;76.00;99466.84;1732555;82;21442;-79
2021/11/10 10:56:27;;;;;;;27.40;14.90;;;;;;;7.37;73.73;99462.64;1731460;82;21099;-78
2021/11/10 10:59:01;;;;;;;26.37;14.00;;;;;;;7.27;73.86;99459.08;1728469;83;21000;-79
2021/11/10 11:01:32;;;;;;;26.57;13.72;;;;;;;7.56;74.66;99447.81;1726468;83;21035;-79
2021/11/10 11:04:15;;;;;;;23.00;13.35;;;;;;;8.22;72.13;99448.14;1726423;83;20988;-79
2021/11/10 11:06:46;;;;;;;21.75;13.03;;;;;;;9.72;70.08;99434.56;1726386;83;21524;-79
2021/11/10 11:09:28;;;;;;;21.20;12.60;;;;;;;10.13;68.73;99422.06;1732247;83;20961;-79
2021/11/10 11:12:04;;;;;;;19.98;12.37;;;;;;;10.60;62.63;99433.31;1732570;83;21045;-78
2021/11/10 11:15:01;;;;;;;19.23;12.75;;;;;;;11.40;61.05;99422.94;1732301;83;21025;-79
2021/11/10 11:17:36;;;;;;;23.87;13.15;;;;;;;12.49;57.76;99424.75;1731789;82;21049;-79
2021/11/10 11:20:13;;;;;;;20.00;12.82;;;;;;;13.31;53.86;99408.83;1729305;83;21029;-80
2021/11/10 11:22:49;;;;;;;19.70;12.80;;;;;;;13.48;53.46;99404.99;1727038;83;21063;-81
2021/11/10 11:25:26;;;;;;;19.05;12.00;;;;;;;14.08;51.87;99410.05;1726899;83;20969;-80
2021/11/10 11:28:10;;;;;;;19.60;12.43;;;;;;;13.77;50.41;99410.22;1727012;83;21418;-80
2021/11/10 11:30:46;;;;;;;17.90;12.70;;;;;;;14.09;50.41;99407.80;1726405;83;20984;-80
2021/11/10 11:33:16;;;;;;;18.98;12.53;;;;;;;14.29;50.19;99402.48;1702364;84;21064;-80
2021/11/10 11:35:46;;;;;;;16.37;12.05;;;;;;;14.89;49.33;99389.56;1703249;84;21075;-80